createdAt,value
2018-11-03T00:01:16.871Z,4.80
2018-11-03T00:03:45.106Z,4.80
2018-11-03T00:06:13.291Z,4.80
2018-11-03T00:08:41.523Z,4.80
2018-11-03T00:11:10.135Z,4.80
2018-11-03T00:13:38.310Z,4.80
2018-11-03T00:16:07.094Z,4.70
2018-11-03T00:18:35.438Z,4.60
2018-11-03T00:21:03.632Z,4.60
2018-11-03T00:23:31.837Z,4.60
2018-11-03T00:26:00.077Z,4.60
2018-11-03T00:28:28.282Z,4.70
2018-11-03T00:30:56.466Z,4.60
2018-11-03T00:33:25.150Z,4.60
2018-11-03T00:35:53.337Z,4.60
2018-11-03T00:38:21.691Z,4.60
2018-11-03T00:40:49.974Z,4.60
2018-11-03T00:43:18.178Z,4.50
2018-11-03T00:45:46.355Z,4.50
2018-11-03T00:48:14.758Z,4.40
2018-11-03T00:50:42.943Z,4.40
2018-11-03T00:53:11.211Z,4.40
2018-11-03T00:55:40.043Z,4.40
2018-11-03T00:58:08.227Z,4.40
2018-11-03T01:00:36.432Z,4.40
2018-11-03T01:03:04.798Z,4.40
2018-11-03T01:05:32.999Z,4.30
2018-11-03T01:08:01.219Z,4.30
2018-11-03T01:10:29.436Z,4.30
2018-11-03T01:12:57.646Z,4.20
2018-11-03T01:15:25.834Z,4.10
2018-11-03T01:17:54.084Z,4.10
2018-11-03T01:20:22.272Z,4.10
2018-11-03T01:22:50.472Z,4.10
2018-11-03T01:25:19.206Z,4.10
2018-11-03T01:27:47.414Z,4.00
2018-11-03T01:30:16.601Z,4.00
2018-11-03T01:32:44.913Z,4.00
2018-11-03T01:35:13.431Z,3.90
2018-11-03T01:37:41.625Z,3.90
2018-11-03T01:40:12.014Z,3.90
2018-11-03T01:42:40.201Z,3.90
2018-11-03T01:45:08.482Z,3.80
2018-11-03T01:47:36.999Z,3.80
2018-11-03T01:50:07.214Z,3.70
2018-11-03T01:52:36.122Z,3.80
2018-11-03T01:55:04.775Z,3.70
2018-11-03T01:57:32.966Z,3.70
2018-11-03T02:00:01.159Z,3.70
2018-11-03T02:02:29.582Z,3.70
2018-11-03T02:04:57.766Z,3.70
2018-11-03T02:07:25.956Z,3.60
2018-11-03T02:09:54.666Z,3.70
2018-11-03T02:12:22.858Z,3.60
2018-11-03T02:14:51.138Z,3.60
2018-11-03T02:17:19.554Z,3.60
2018-11-03T02:19:47.735Z,3.60
2018-11-03T02:22:15.924Z,3.50
2018-11-03T02:24:44.811Z,3.50
2018-11-03T02:27:12.994Z,3.50
2018-11-03T02:29:41.187Z,3.50
2018-11-03T02:32:10.115Z,3.50
2018-11-03T02:34:38.390Z,3.40
2018-11-03T02:37:06.564Z,3.50
2018-11-03T02:39:35.259Z,3.50
2018-11-03T02:42:03.460Z,3.50
2018-11-03T02:44:31.683Z,3.50
2018-11-03T02:46:59.943Z,3.40
2018-11-03T02:49:28.118Z,3.40
2018-11-03T02:51:56.299Z,3.30
2018-11-03T02:54:24.928Z,3.30
2018-11-03T02:56:53.440Z,3.30
2018-11-03T02:59:21.638Z,3.20
2018-11-03T03:01:50.123Z,3.20
2018-11-03T03:04:19.209Z,3.20
2018-11-03T03:06:47.377Z,3.20
2018-11-03T03:09:15.607Z,3.20
2018-11-03T03:11:43.823Z,3.20
2018-11-03T03:14:12.011Z,3.20
2018-11-03T03:16:40.568Z,3.20
2018-11-03T03:19:08.767Z,3.20
2018-11-03T03:21:36.955Z,3.20
2018-11-03T03:24:05.171Z,3.10
2018-11-03T03:26:33.438Z,3.10
2018-11-03T03:29:01.667Z,3.10
2018-11-03T03:31:29.931Z,3.10
2018-11-03T03:33:58.113Z,3.20
2018-11-03T03:36:26.402Z,3.10
2018-11-03T03:38:55.163Z,3.10
2018-11-03T03:41:23.408Z,3.10
2018-11-03T03:43:51.590Z,2.90
2018-11-03T03:46:20.167Z,2.90
2018-11-03T03:48:48.360Z,2.90
2018-11-03T03:51:16.534Z,2.80
2018-11-03T03:53:44.793Z,2.90
2018-11-03T03:56:12.982Z,2.90
2018-11-03T03:58:42.432Z,2.90
2018-11-03T04:01:10.694Z,2.90
2018-11-03T04:03:41.123Z,2.90
2018-11-03T04:06:09.307Z,3.00
2018-11-03T04:08:37.835Z,2.90
2018-11-03T04:11:06.014Z,2.90
2018-11-03T04:13:34.226Z,2.90
2018-11-03T04:16:02.770Z,2.90
2018-11-03T04:18:31.157Z,2.90
2018-11-03T04:20:59.339Z,2.90
2018-11-03T04:23:27.918Z,2.80
2018-11-03T04:25:56.103Z,2.80
2018-11-03T04:28:24.287Z,2.80
2018-11-03T04:30:52.490Z,2.80
2018-11-03T04:33:21.243Z,2.80
2018-11-03T04:35:49.422Z,2.80
2018-11-03T04:38:18.239Z,2.80
2018-11-03T04:40:46.429Z,2.80
2018-11-03T04:43:14.627Z,2.80
2018-11-03T04:45:42.838Z,2.70
2018-11-03T04:48:11.063Z,2.70
2018-11-03T04:50:39.301Z,2.70
2018-11-03T04:53:08.325Z,2.70
2018-11-03T04:55:36.511Z,2.70
2018-11-03T04:58:04.882Z,2.70
2018-11-03T05:00:34.111Z,2.70
2018-11-03T05:03:02.324Z,2.70
2018-11-03T05:05:30.509Z,2.60
2018-11-03T05:07:58.815Z,2.60
2018-11-03T05:10:27.247Z,2.60
2018-11-03T05:12:55.429Z,2.50
2018-11-03T05:15:24.072Z,2.50
2018-11-03T05:17:52.270Z,2.60
2018-11-03T05:20:20.474Z,2.50
2018-11-03T05:22:49.228Z,2.50
2018-11-03T05:25:17.415Z,2.50
2018-11-03T05:27:45.732Z,2.50
2018-11-03T05:30:14.343Z,2.50
2018-11-03T05:32:42.546Z,2.50
2018-11-03T05:35:10.776Z,2.50
2018-11-03T05:37:43.054Z,2.50
2018-11-03T05:40:11.259Z,2.50
2018-11-03T05:42:39.525Z,2.50
2018-11-03T05:45:08.223Z,2.50
2018-11-03T05:47:36.722Z,2.50
2018-11-03T05:50:06.431Z,2.50
2018-11-03T05:52:35.563Z,2.50
2018-11-03T05:55:04.157Z,2.50
2018-11-03T05:57:32.731Z,2.50
2018-11-03T06:00:05.424Z,2.40
2018-11-03T06:02:36.094Z,2.50
2018-11-03T06:05:05.185Z,2.50
2018-11-03T06:07:33.393Z,2.60
2018-11-03T06:10:02.868Z,2.50
2018-11-03T06:12:31.754Z,2.50
2018-11-03T06:14:59.945Z,2.50
2018-11-03T06:17:28.155Z,2.50
2018-11-03T06:19:56.659Z,2.50
2018-11-03T06:22:24.890Z,2.50
2018-11-03T06:24:53.634Z,2.50
2018-11-03T06:27:23.117Z,2.50
2018-11-03T06:29:51.314Z,2.50
2018-11-03T06:32:19.551Z,2.50
2018-11-03T06:34:48.274Z,2.40
2018-11-03T06:37:16.538Z,2.30
2018-11-03T06:39:45.355Z,2.30
2018-11-03T06:42:13.594Z,2.30
2018-11-03T06:44:41.823Z,2.30
2018-11-03T06:47:10.224Z,2.30
2018-11-03T06:49:42.598Z,2.40
2018-11-03T06:52:10.953Z,2.30
2018-11-03T06:54:39.163Z,2.30
2018-11-03T06:57:08.207Z,2.30
2018-11-03T06:59:36.403Z,2.40
2018-11-03T07:02:05.442Z,2.50
2018-11-03T07:04:35.070Z,2.50
2018-11-03T07:07:03.855Z,2.60
2018-11-03T07:09:32.285Z,2.70
2018-11-03T07:12:00.990Z,2.70
2018-11-03T07:14:29.163Z,2.80
2018-11-03T07:16:57.354Z,2.90
2018-11-03T07:19:26.079Z,2.90
2018-11-03T07:21:54.291Z,3.00
2018-11-03T07:24:22.544Z,3.10
2018-11-03T07:26:51.698Z,3.10
2018-11-03T07:29:21.545Z,3.20
2018-11-03T07:31:49.858Z,3.20
2018-11-03T07:34:18.891Z,3.30
2018-11-03T07:36:47.109Z,3.40
2018-11-03T07:39:17.244Z,3.50
2018-11-03T07:41:49.224Z,3.50
2018-11-03T07:44:17.443Z,3.50
2018-11-03T07:46:45.655Z,3.60
2018-11-03T07:49:17.026Z,3.60
2018-11-03T07:51:45.954Z,3.70
2018-11-03T07:54:14.156Z,3.70
2018-11-03T07:56:42.394Z,3.70
2018-11-03T07:59:10.589Z,3.80
2018-11-03T08:01:38.789Z,3.80
2018-11-03T08:04:07.914Z,3.80
2018-11-03T08:06:36.539Z,3.90
2018-11-03T08:09:07.023Z,3.90
2018-11-03T08:11:35.567Z,4.00
2018-11-03T08:14:03.810Z,3.90
2018-11-03T08:16:32.047Z,4.00
2018-11-03T08:19:00.488Z,4.10
2018-11-03T08:21:28.699Z,4.10
2018-11-03T08:23:56.973Z,4.10
2018-11-03T08:26:25.200Z,4.20
2018-11-03T08:28:53.587Z,4.20
2018-11-03T08:31:21.866Z,4.30
2018-11-03T08:33:50.067Z,4.50
2018-11-03T08:36:18.283Z,4.60
2018-11-03T08:38:46.584Z,4.60
2018-11-03T08:41:14.817Z,4.60
2018-11-03T08:43:43.448Z,4.70
2018-11-03T08:46:11.662Z,4.70
2018-11-03T08:48:40.255Z,4.80
2018-11-03T08:51:08.406Z,4.90
2018-11-03T08:53:54.895Z,5.10
2018-11-03T08:56:23.095Z,5.10
2018-11-03T08:58:51.300Z,5.30
2018-11-03T09:01:19.544Z,5.30
2018-11-03T09:03:58.478Z,5.40
2018-11-03T09:06:27.323Z,5.50
2018-11-03T09:08:56.195Z,5.50
2018-11-03T09:11:24.403Z,5.50
2018-11-03T09:13:52.711Z,5.50
2018-11-03T09:16:20.910Z,5.60
2018-11-03T09:18:49.116Z,5.70
2018-11-03T09:21:17.843Z,5.80
2018-11-03T09:23:46.990Z,5.90
2018-11-03T09:26:15.170Z,6.00
2018-11-03T09:28:43.866Z,6.10
2018-11-03T09:31:12.090Z,6.20
2018-11-03T09:33:40.267Z,6.30
2018-11-03T09:36:09.603Z,6.40
2018-11-03T09:38:37.826Z,6.50
2018-11-03T09:41:05.981Z,6.70
2018-11-03T09:43:36.020Z,6.70
2018-11-03T09:46:04.156Z,6.80
2018-11-03T09:48:32.372Z,6.90
2018-11-03T09:51:00.666Z,7.00
2018-11-03T09:53:28.827Z,6.80
2018-11-03T09:55:57.266Z,6.90
2018-11-03T09:58:26.017Z,7.00
2018-11-03T10:00:54.296Z,7.20
2018-11-03T10:03:22.561Z,7.30
2018-11-03T10:05:51.120Z,7.40
2018-11-03T10:08:19.322Z,7.40
2018-11-03T10:10:47.626Z,7.50
2018-11-03T10:13:15.878Z,7.60
2018-11-03T10:15:44.155Z,7.60
2018-11-03T10:18:12.255Z,7.60
2018-11-03T10:20:40.783Z,7.70
2018-11-03T10:23:09.990Z,7.90
2018-11-03T10:25:38.244Z,8.00
2018-11-03T10:28:07.146Z,8.00
2018-11-03T10:30:35.459Z,8.10
2018-11-03T10:33:03.647Z,8.20
2018-11-03T10:35:32.194Z,8.40
2018-11-03T10:38:00.386Z,8.40
2018-11-03T10:40:28.571Z,8.40
2018-11-03T10:42:57.112Z,8.50
2018-11-03T10:45:25.299Z,8.50
2018-11-03T10:47:53.511Z,8.60
2018-11-03T10:50:21.996Z,8.60
2018-11-03T10:52:50.202Z,8.60
2018-11-03T10:57:47.875Z,8.60
2018-11-03T11:00:25.359Z,8.80
2018-11-03T11:02:59.326Z,8.70
2018-11-03T11:05:33.477Z,8.90
2018-11-03T11:08:07.339Z,9.00
2018-11-03T11:10:41.015Z,8.90
2018-11-03T11:13:12.387Z,8.90
2018-11-03T11:15:40.586Z,8.90
2018-11-03T11:18:08.783Z,9.10
2018-11-03T11:20:37.646Z,9.20
2018-11-03T11:23:05.941Z,9.10
2018-11-03T11:25:34.102Z,9.20
2018-11-03T11:28:02.666Z,9.40
2018-11-03T11:30:38.822Z,9.40
2018-11-03T11:33:11.272Z,9.60
2018-11-03T11:35:42.817Z,9.70
2018-11-03T11:38:16.228Z,9.80
2018-11-03T11:40:48.830Z,9.90
2018-11-03T11:43:20.629Z,9.90
2018-11-03T11:45:52.036Z,9.90
2018-11-03T11:48:23.351Z,10.00
2018-11-03T11:50:52.586Z,10.00
2018-11-03T11:53:21.738Z,10.10
2018-11-03T11:55:51.335Z,10.20
2018-11-03T11:58:21.024Z,10.10
2018-11-03T12:00:51.322Z,10.20
2018-11-03T12:03:19.971Z,10.30
2018-11-03T12:05:49.378Z,10.40
2018-11-03T12:08:19.164Z,10.40
2018-11-03T12:10:49.133Z,10.50
2018-11-03T12:13:18.555Z,10.40
2018-11-03T12:15:47.324Z,10.40
2018-11-03T12:18:16.445Z,10.40
2018-11-03T12:20:46.166Z,10.40
2018-11-03T12:23:15.203Z,10.50
2018-11-03T12:25:44.693Z,10.50
2018-11-03T12:28:13.960Z,10.60
2018-11-03T12:30:44.911Z,10.60
2018-11-03T12:33:14.605Z,10.70
2018-11-03T12:35:43.750Z,10.70
2018-11-03T12:38:13.311Z,10.70
2018-11-03T12:40:43.329Z,10.80
2018-11-03T12:43:12.341Z,10.60
2018-11-03T12:45:43.202Z,10.80
2018-11-03T12:48:14.470Z,10.90
2018-11-03T12:50:45.039Z,11.00
2018-11-03T12:53:14.338Z,11.10
2018-11-03T12:55:43.742Z,11.00
2018-11-03T12:58:14.260Z,11.00
2018-11-03T13:00:43.853Z,11.10
2018-11-03T13:03:14.130Z,11.10
2018-11-03T13:05:43.168Z,11.10
2018-11-03T13:08:16.510Z,11.00
2018-11-03T13:10:45.227Z,11.00
2018-11-03T13:13:13.435Z,11.00
2018-11-03T13:15:42.257Z,10.90
2018-11-03T13:18:10.379Z,11.00
2018-11-03T13:20:39.155Z,10.90
2018-11-03T13:23:07.973Z,10.80
2018-11-03T13:25:36.186Z,10.80
2018-11-03T13:28:04.702Z,10.90
2018-11-03T13:30:33.429Z,10.80
2018-11-03T13:33:01.602Z,10.80
2018-11-03T13:35:29.830Z,10.80
2018-11-03T13:37:58.076Z,10.70
2018-11-03T13:40:26.246Z,10.70
2018-11-03T13:42:54.430Z,10.60
2018-11-03T13:45:22.666Z,10.40
2018-11-03T13:47:50.895Z,10.40
2018-11-03T13:50:19.024Z,10.30
2018-11-03T13:52:48.330Z,10.30
2018-11-03T13:55:16.539Z,10.30
2018-11-03T13:57:45.543Z,10.20
2018-11-03T14:00:16.083Z,10.20
2018-11-03T14:02:45.023Z,10.20
2018-11-03T14:05:13.195Z,10.10
2018-11-03T14:07:41.422Z,10.10
2018-11-03T14:10:11.923Z,10.10
2018-11-03T14:12:40.198Z,10.10
2018-11-03T14:15:10.471Z,10.00
2018-11-03T14:17:38.759Z,10.00
2018-11-03T14:20:08.636Z,10.00
2018-11-03T14:22:37.107Z,10.00
2018-11-03T14:25:06.827Z,9.90
2018-11-03T14:27:35.069Z,9.90
2018-11-03T14:30:03.483Z,9.90
2018-11-03T14:32:31.654Z,9.90
2018-11-03T14:35:00.186Z,9.90
2018-11-03T14:37:28.698Z,9.90
2018-11-03T14:39:56.891Z,9.90
2018-11-03T14:42:25.093Z,9.80
2018-11-03T14:44:53.410Z,9.80
2018-11-03T14:47:21.618Z,9.80
2018-11-03T14:49:49.784Z,9.80
2018-11-03T14:52:18.726Z,9.80
2018-11-03T14:54:50.340Z,9.70
2018-11-03T14:57:21.754Z,9.70
2018-11-03T14:59:50.011Z,9.70
2018-11-03T15:02:18.207Z,9.60
2018-11-03T15:04:46.770Z,9.60
2018-11-03T15:07:14.942Z,9.60
2018-11-03T15:09:43.132Z,9.50
2018-11-03T15:12:12.719Z,9.50
2018-11-03T15:14:40.972Z,9.50
2018-11-03T15:17:09.491Z,9.50
2018-11-03T15:19:38.514Z,9.40
2018-11-03T15:22:07.039Z,9.40
2018-11-03T15:24:37.935Z,9.40
2018-11-03T15:27:07.203Z,9.30
2018-11-03T15:29:35.674Z,9.30
2018-11-03T15:32:03.972Z,9.20
2018-11-03T15:34:32.664Z,9.20
2018-11-03T15:37:00.923Z,9.20
2018-11-03T15:39:29.518Z,9.10
2018-11-03T15:41:58.279Z,9.10
2018-11-03T15:44:26.464Z,9.10
2018-11-03T15:46:55.822Z,9.00
2018-11-03T15:49:26.507Z,8.90
2018-11-03T15:51:54.757Z,8.90
2018-11-03T15:54:23.351Z,8.90
2018-11-03T15:56:52.231Z,8.80
2018-11-03T15:59:20.389Z,8.70
2018-11-03T16:01:48.599Z,8.80
2018-11-03T16:04:17.218Z,8.70
2018-11-03T16:06:45.686Z,8.60
2018-11-03T16:09:14.711Z,8.60
2018-11-03T16:11:43.737Z,8.60
2018-11-03T16:14:12.319Z,8.50
2018-11-03T16:16:42.219Z,8.40
2018-11-03T16:19:11.388Z,8.40
2018-11-03T16:21:40.633Z,8.40
2018-11-03T16:24:09.407Z,8.30
2018-11-03T16:26:38.764Z,8.30
2018-11-03T16:29:07.576Z,8.20
2018-11-03T16:31:36.267Z,8.20
2018-11-03T16:34:05.472Z,8.10
2018-11-03T16:36:34.402Z,8.10
2018-11-03T16:39:04.589Z,8.10
2018-11-03T16:41:33.537Z,8.00
2018-11-03T16:44:02.412Z,8.00
2018-11-03T16:46:31.647Z,7.90
2018-11-03T16:49:00.892Z,7.90
2018-11-03T16:51:29.666Z,7.80
2018-11-03T16:53:58.511Z,7.80
2018-11-03T16:56:27.503Z,7.80
2018-11-03T16:58:56.562Z,7.70
2018-11-03T17:01:25.203Z,7.70
2018-11-03T17:03:54.405Z,7.70
2018-11-03T17:06:24.253Z,7.70
2018-11-03T17:08:53.194Z,7.60
2018-11-03T17:11:22.826Z,7.60
2018-11-03T17:13:52.134Z,7.60
2018-11-03T17:16:20.915Z,7.60
2018-11-03T17:18:50.934Z,7.60
2018-11-03T17:21:19.689Z,7.60
2018-11-03T17:23:49.538Z,7.50
2018-11-03T17:26:18.507Z,7.50
2018-11-03T17:28:47.926Z,7.50
2018-11-03T17:31:17.807Z,7.40
2018-11-03T17:33:46.712Z,7.40
2018-11-03T17:36:16.453Z,7.40
2018-11-03T17:38:45.536Z,7.40
2018-11-03T17:41:14.729Z,7.30
2018-11-03T17:43:43.394Z,7.30
2018-11-03T17:46:12.177Z,7.20
2018-11-03T17:48:42.625Z,7.20
2018-11-03T17:51:11.547Z,7.10
2018-11-03T17:53:40.311Z,7.10
2018-11-03T17:56:10.272Z,7.10
2018-11-03T17:58:39.120Z,7.10
2018-11-03T18:01:08.338Z,7.10
2018-11-03T18:03:37.917Z,7.10
2018-11-03T18:06:06.528Z,7.00
2018-11-03T18:08:36.189Z,7.00
2018-11-03T18:11:06.121Z,7.00
2018-11-03T18:13:34.631Z,7.00
2018-11-03T18:16:02.826Z,7.00
2018-11-03T18:18:31.028Z,6.90
2018-11-03T18:20:59.195Z,6.90
2018-11-03T18:23:32.405Z,6.80
2018-11-03T18:26:08.492Z,6.80
2018-11-03T18:28:41.282Z,6.80
2018-11-03T18:31:12.988Z,6.80
2018-11-03T18:33:45.567Z,6.70
2018-11-03T18:36:17.139Z,6.70
2018-11-03T18:38:49.414Z,6.70
2018-11-03T18:41:22.125Z,6.60
2018-11-03T18:43:54.467Z,6.60
2018-11-03T18:46:26.809Z,6.60
2018-11-03T18:48:58.745Z,6.50
2018-11-03T18:51:31.004Z,6.50
2018-11-03T18:54:03.352Z,6.40
2018-11-03T18:56:35.105Z,6.40
2018-11-03T18:59:08.182Z,6.40
2018-11-03T19:01:38.572Z,6.40
2018-11-03T19:04:07.063Z,6.30
2018-11-03T19:06:35.255Z,6.30
2018-11-03T19:09:03.885Z,6.30
2018-11-03T19:11:32.391Z,6.30
2018-11-03T19:14:00.650Z,6.30
2018-11-03T19:16:28.828Z,6.30
2018-11-03T19:18:57.116Z,6.30
2018-11-03T19:21:25.494Z,6.30
2018-11-03T19:23:54.550Z,6.20
2018-11-03T19:26:25.145Z,6.30
2018-11-03T19:28:53.962Z,6.20
2018-11-03T19:39:59.568Z,6.30
2018-11-03T19:42:28.770Z,6.20
2018-11-03T19:44:58.817Z,6.10
2018-11-03T19:47:28.547Z,6.00
2018-11-03T19:49:57.813Z,6.00
2018-11-03T19:52:27.854Z,5.90
2018-11-03T19:54:57.771Z,5.90
2018-11-03T19:57:26.736Z,5.80
2018-11-03T19:59:57.380Z,5.70
2018-11-03T20:02:26.781Z,5.70
2018-11-03T20:04:55.591Z,5.70
2018-11-03T20:07:24.391Z,5.70
2018-11-03T20:09:56.063Z,5.70
2018-11-03T20:12:25.765Z,5.60
2018-11-03T20:14:54.590Z,5.60
2018-11-03T20:17:24.334Z,5.60
2018-11-03T20:19:53.757Z,5.60
2018-11-03T20:22:22.539Z,5.50
2018-11-03T20:24:52.741Z,5.50
2018-11-03T20:27:21.409Z,5.50
2018-11-03T20:29:50.205Z,5.40
2018-11-03T20:32:20.316Z,5.40
2018-11-03T20:34:49.066Z,5.40
2018-11-03T20:37:19.025Z,5.40
2018-11-03T20:39:48.394Z,5.40
2018-11-03T20:42:16.995Z,5.30
2018-11-03T20:44:46.479Z,5.30
2018-11-03T20:47:15.189Z,5.20
2018-11-03T20:49:44.051Z,5.20
2018-11-03T20:52:13.236Z,5.10
2018-11-03T20:54:41.836Z,5.10
2018-11-03T20:57:11.127Z,5.10
2018-11-03T20:59:39.582Z,5.10
2018-11-03T21:02:08.325Z,5.00
2018-11-03T21:04:36.978Z,5.00
2018-11-03T21:07:05.960Z,5.00
2018-11-03T21:09:35.373Z,5.00
2018-11-03T21:12:03.746Z,5.00
2018-11-03T21:14:33.442Z,5.00
2018-11-03T21:17:02.567Z,5.00
2018-11-03T21:19:31.245Z,4.90
2018-11-03T21:22:00.296Z,4.80
2018-11-03T21:24:29.554Z,4.90
2018-11-03T21:26:58.423Z,4.90
2018-11-03T21:29:27.203Z,4.90
2018-11-03T21:31:58.073Z,4.90
2018-11-03T21:34:26.620Z,4.90
2018-11-03T21:36:55.786Z,4.90
2018-11-03T21:39:25.545Z,4.90
2018-11-03T21:41:55.533Z,4.80
2018-11-03T21:44:25.730Z,4.80
2018-11-03T21:46:54.640Z,4.80
2018-11-03T21:49:23.054Z,4.70
2018-11-03T21:51:53.824Z,4.70
2018-11-03T21:54:22.533Z,4.70
2018-11-03T21:56:51.426Z,4.60
2018-11-03T21:59:21.017Z,4.60
2018-11-03T22:01:49.961Z,4.70
2018-11-03T22:04:20.725Z,4.70
2018-11-03T22:06:49.454Z,4.70
2018-11-03T22:09:20.618Z,4.70
2018-11-03T22:11:50.011Z,4.60
2018-11-03T22:14:18.758Z,4.70
2018-11-03T22:16:48.236Z,4.60
2018-11-03T22:19:16.518Z,4.60
2018-11-03T22:21:44.729Z,4.60
2018-11-03T22:24:13.042Z,4.60
2018-11-03T22:26:41.368Z,4.60
2018-11-03T22:29:09.547Z,4.60
2018-11-03T22:31:38.066Z,4.60
2018-11-03T22:34:06.867Z,4.60
2018-11-03T22:36:35.071Z,4.60
2018-11-03T22:39:04.160Z,4.60
2018-11-03T22:41:32.418Z,4.60
2018-11-03T22:44:00.671Z,4.60
2018-11-03T22:46:29.217Z,4.60
2018-11-03T22:48:57.839Z,4.60
2018-11-03T22:51:26.220Z,4.60
2018-11-03T22:53:54.402Z,4.60
2018-11-03T22:56:22.669Z,4.60
2018-11-03T22:58:50.856Z,4.50
2018-11-03T23:01:19.038Z,4.50
2018-11-03T23:03:47.561Z,4.50
2018-11-03T23:06:15.741Z,4.50
2018-11-03T23:08:43.931Z,4.50
2018-11-03T23:11:13.536Z,4.40
2018-11-03T23:13:41.762Z,4.40
2018-11-03T23:16:09.914Z,4.40
2018-11-03T23:18:38.555Z,4.40
2018-11-03T23:21:06.756Z,4.40
2018-11-03T23:23:35.095Z,4.30
2018-11-03T23:26:03.393Z,4.30
2018-11-03T23:28:31.624Z,4.20
2018-11-03T23:31:00.445Z,4.20
2018-11-03T23:33:30.022Z,4.20
2018-11-03T23:35:58.206Z,4.20
2018-11-03T23:38:26.403Z,4.10
2018-11-03T23:40:55.311Z,4.10
2018-11-03T23:43:23.490Z,4.10
2018-11-03T23:45:51.710Z,4.10
2018-11-03T23:48:20.298Z,4.10
2018-11-03T23:50:48.483Z,4.10
2018-11-03T23:53:16.925Z,4.10
2018-11-03T23:55:45.141Z,4.10
2018-11-03T23:58:13.322Z,4.10
